createdAt,value
2019-01-27T00:01:43.536Z,3.20
2019-01-27T00:04:47.177Z,3.10
2019-01-27T00:07:50.757Z,3.00
2019-01-27T00:10:54.356Z,2.73
2019-01-27T00:13:58.100Z,2.50
2019-01-27T00:17:01.690Z,2.40
2019-01-27T00:20:06.398Z,2.07
2019-01-27T00:23:10.015Z,2.00
2019-01-27T00:26:13.624Z,2.33
2019-01-27T00:29:17.275Z,1.87
2019-01-27T00:32:20.933Z,1.90
2019-01-27T00:35:24.630Z,1.77
2019-01-27T00:38:28.315Z,1.70
2019-01-27T00:41:31.987Z,1.93
2019-01-27T00:44:35.627Z,1.60
2019-01-27T00:47:39.229Z,1.70
2019-01-27T00:50:42.859Z,2.77
2019-01-27T00:53:46.579Z,1.83
2019-01-27T00:56:50.116Z,2.07
2019-01-27T00:59:53.684Z,1.90
2019-01-27T01:02:57.315Z,1.70
2019-01-27T01:06:01.064Z,1.63
2019-01-27T01:09:06.932Z,1.47
2019-01-27T01:12:10.689Z,1.50
2019-01-27T01:15:14.353Z,1.40
2019-01-27T01:18:18.029Z,1.60
2019-01-27T01:21:21.869Z,1.30
2019-01-27T01:24:25.459Z,1.37
2019-01-27T01:27:29.177Z,1.40
2019-01-27T01:30:32.843Z,1.90
2019-01-27T01:33:36.395Z,1.60
2019-01-27T01:36:40.134Z,1.40
2019-01-27T01:39:43.685Z,1.50
2019-01-27T01:42:47.430Z,1.40
2019-01-27T01:45:51.005Z,1.77
2019-01-27T01:48:54.613Z,1.30
2019-01-27T01:51:58.295Z,1.40
2019-01-27T01:55:01.869Z,1.30
2019-01-27T01:58:05.933Z,1.43
2019-01-27T02:01:09.669Z,1.57
2019-01-27T02:04:13.366Z,1.33
2019-01-27T02:07:17.040Z,1.20
2019-01-27T02:10:21.235Z,1.10
2019-01-27T02:13:24.881Z,1.30
2019-01-27T02:16:28.578Z,1.30
2019-01-27T02:19:32.343Z,1.40
2019-01-27T02:22:35.989Z,1.20
2019-01-27T02:25:39.637Z,1.20
2019-01-27T02:28:43.361Z,1.17
2019-01-27T02:31:46.964Z,1.10
2019-01-27T02:34:50.659Z,1.30
2019-01-27T02:37:55.310Z,0.90
2019-01-27T02:40:58.976Z,0.97
2019-01-27T02:44:02.602Z,0.80
2019-01-27T02:47:06.328Z,1.03
2019-01-27T02:50:10.082Z,1.00
2019-01-27T02:53:13.535Z,0.97
2019-01-27T02:56:17.178Z,1.00
2019-01-27T02:59:20.784Z,1.03
2019-01-27T03:02:24.273Z,1.03
2019-01-27T03:05:39.786Z,0.87
2019-01-27T03:08:48.919Z,0.70
2019-01-27T03:11:52.570Z,1.03
2019-01-27T03:14:56.253Z,1.00
2019-01-27T03:17:59.870Z,0.90
2019-01-27T03:21:03.509Z,0.80
2019-01-27T03:24:07.198Z,0.90
2019-01-27T03:27:10.786Z,0.73
2019-01-27T03:30:16.713Z,0.90
2019-01-27T03:33:20.365Z,0.80
2019-01-27T03:36:23.939Z,0.63
2019-01-27T03:39:27.566Z,0.80
2019-01-27T03:42:31.132Z,0.90
2019-01-27T03:45:34.662Z,0.73
2019-01-27T03:48:38.312Z,0.70
2019-01-27T03:51:41.920Z,0.70
2019-01-27T03:54:45.612Z,0.80
2019-01-27T03:57:49.131Z,0.70
2019-01-27T04:00:52.725Z,0.60
2019-01-27T04:03:56.311Z,0.70
2019-01-27T04:06:59.998Z,0.67
2019-01-27T04:10:03.652Z,0.77
2019-01-27T04:13:07.282Z,0.70
2019-01-27T04:16:10.919Z,0.97
2019-01-27T04:19:14.540Z,0.70
2019-01-27T04:22:18.095Z,0.80
2019-01-27T04:25:21.630Z,0.90
2019-01-27T04:28:25.247Z,0.80
2019-01-27T04:31:28.835Z,0.90
2019-01-27T04:34:32.450Z,0.70
2019-01-27T04:37:36.057Z,0.90
2019-01-27T04:40:39.673Z,0.97
2019-01-27T04:43:43.249Z,0.90
2019-01-27T04:46:46.900Z,0.90
2019-01-27T04:49:50.490Z,0.70
2019-01-27T04:52:54.171Z,0.90
2019-01-27T04:55:57.770Z,1.00
2019-01-27T04:59:01.295Z,0.93
2019-01-27T05:02:04.965Z,1.20
2019-01-27T05:05:09.183Z,1.00
2019-01-27T05:08:12.806Z,1.20
2019-01-27T05:11:16.413Z,1.00
2019-01-27T05:14:20.089Z,0.87
2019-01-27T05:17:23.753Z,0.80
2019-01-27T05:20:27.493Z,0.97
2019-01-27T05:23:31.106Z,0.90
2019-01-27T05:26:34.779Z,0.80
2019-01-27T05:29:38.446Z,0.80
2019-01-27T05:32:41.968Z,0.90
2019-01-27T05:35:45.662Z,0.70
2019-01-27T05:38:49.351Z,0.90
2019-01-27T05:41:53.112Z,1.00
2019-01-27T05:44:56.805Z,0.90
2019-01-27T05:48:00.422Z,0.90
2019-01-27T05:51:04.191Z,1.00
2019-01-27T05:54:07.884Z,1.00
2019-01-27T05:57:11.538Z,0.63
2019-01-27T06:00:17.576Z,0.80
2019-01-27T06:03:21.197Z,0.70
2019-01-27T06:06:24.717Z,0.63
2019-01-27T06:09:28.402Z,0.80
2019-01-27T06:12:31.891Z,0.67
2019-01-27T06:15:35.557Z,0.80
2019-01-27T06:18:39.217Z,0.80
2019-01-27T06:21:42.806Z,0.60
2019-01-27T06:24:46.392Z,0.70
2019-01-27T06:27:49.910Z,0.63
2019-01-27T06:30:53.515Z,0.63
2019-01-27T06:34:02.516Z,0.80
2019-01-27T06:37:06.184Z,0.70
2019-01-27T06:40:09.723Z,0.87
2019-01-27T06:43:13.380Z,0.83
2019-01-27T06:46:16.922Z,0.90
2019-01-27T06:49:20.662Z,0.63
2019-01-27T06:52:24.229Z,0.80
2019-01-27T06:55:27.853Z,0.77
2019-01-27T06:58:36.748Z,1.00
2019-01-27T07:01:47.213Z,0.80
2019-01-27T07:04:57.842Z,0.80
2019-01-27T07:08:08.475Z,0.90
2019-01-27T07:13:20.080Z,0.70
2019-01-27T07:16:29.040Z,0.80
2019-01-27T07:20:10.605Z,0.60
2019-01-27T07:24:16.596Z,0.60
2019-01-27T07:27:56.357Z,0.60
2019-01-27T07:33:09.462Z,0.90
2019-01-27T07:36:18.006Z,0.80
2019-01-27T07:39:25.779Z,0.83
2019-01-27T07:42:34.469Z,0.77
2019-01-27T07:45:44.388Z,0.77
2019-01-27T07:48:52.195Z,1.20
2019-01-27T07:52:05.896Z,0.70
2019-01-27T07:55:32.570Z,0.87
2019-01-27T07:58:45.209Z,0.70
2019-01-27T08:01:53.889Z,0.80
2019-01-27T08:05:02.779Z,0.77
2019-01-27T08:08:18.606Z,0.73
2019-01-27T08:11:41.449Z,0.80
2019-01-27T08:14:49.326Z,0.67
2019-01-27T08:17:59.972Z,0.70
2019-01-27T08:21:08.563Z,0.97
2019-01-27T08:24:17.202Z,0.77
2019-01-27T08:29:26.996Z,1.20
2019-01-27T08:34:39.828Z,0.73
2019-01-27T08:37:48.313Z,0.70
2019-01-27T08:40:57.111Z,0.90
2019-01-27T08:44:13.632Z,0.67
2019-01-27T08:47:17.257Z,0.80
2019-01-27T08:50:20.809Z,0.60
2019-01-27T08:53:24.419Z,0.80
2019-01-27T08:56:28.001Z,0.77
2019-01-27T08:59:31.670Z,0.60
2019-01-27T09:02:40.432Z,0.50
2019-01-27T09:06:04.107Z,0.60
2019-01-27T09:09:15.566Z,0.70
2019-01-27T09:12:24.315Z,0.60
2019-01-27T09:15:41.890Z,0.70
2019-01-27T09:18:57.459Z,1.03
2019-01-27T09:22:07.146Z,0.70
2019-01-27T09:25:16.728Z,0.60
2019-01-27T09:28:29.211Z,0.70
2019-01-27T09:31:45.757Z,0.67
2019-01-27T09:34:53.506Z,0.70
2019-01-27T09:40:05.165Z,0.57
2019-01-27T09:43:20.214Z,0.70
2019-01-27T09:46:32.793Z,0.70
2019-01-27T09:49:45.447Z,0.60
2019-01-27T09:52:54.990Z,0.70
2019-01-27T09:56:12.006Z,0.70
2019-01-27T09:59:24.828Z,0.70
2019-01-27T10:02:34.940Z,0.90
2019-01-27T10:06:13.174Z,0.73
2019-01-27T10:09:25.783Z,0.60
2019-01-27T10:12:36.451Z,0.80
2019-01-27T10:17:47.126Z,0.80
2019-01-27T10:20:59.920Z,0.77
2019-01-27T10:24:07.782Z,0.70
2019-01-27T10:27:16.305Z,0.80
2019-01-27T10:30:26.266Z,1.00
2019-01-27T10:33:39.044Z,0.90
2019-01-27T10:36:50.987Z,0.73
2019-01-27T10:40:30.587Z,0.90
2019-01-27T10:44:09.368Z,1.00
2019-01-27T10:48:17.931Z,0.90
2019-01-27T10:51:32.506Z,0.70
2019-01-27T10:54:41.031Z,0.90
2019-01-27T10:58:25.821Z,1.07
2019-01-27T11:01:37.859Z,1.30
2019-01-27T11:04:53.893Z,1.23
2019-01-27T11:10:11.697Z,1.07
2019-01-27T11:15:25.082Z,1.63
2019-01-27T11:18:36.690Z,1.70
2019-01-27T11:21:54.187Z,1.50
2019-01-27T11:27:04.169Z,1.90
2019-01-27T11:30:14.255Z,1.33
2019-01-27T11:33:40.756Z,1.40
2019-01-27T11:36:51.362Z,1.07
2019-01-27T11:42:03.351Z,1.20
2019-01-27T11:45:18.823Z,1.30
2019-01-27T11:48:27.477Z,1.20
2019-01-27T11:51:35.221Z,1.17
2019-01-27T11:54:38.783Z,1.40
2019-01-27T11:57:42.361Z,0.80
2019-01-27T12:00:48.775Z,1.20
2019-01-27T12:03:52.325Z,0.80
2019-01-27T12:06:55.981Z,0.83
2019-01-27T12:09:59.583Z,1.43
2019-01-27T12:13:03.222Z,1.40
2019-01-27T12:16:06.736Z,1.37
2019-01-27T12:19:10.261Z,1.20
2019-01-27T12:22:13.892Z,0.73
2019-01-27T12:25:17.602Z,1.00
2019-01-27T12:28:21.192Z,1.00
2019-01-27T12:31:24.823Z,1.03
2019-01-27T12:34:30.568Z,0.87
2019-01-27T12:37:34.234Z,1.00
2019-01-27T12:40:37.978Z,1.00
2019-01-27T12:43:41.507Z,0.80
2019-01-27T12:46:45.100Z,0.90
2019-01-27T12:49:48.627Z,0.80
2019-01-27T12:52:52.485Z,1.60
2019-01-27T12:55:56.228Z,2.33
2019-01-27T12:58:59.861Z,2.00
2019-01-27T13:02:03.500Z,1.50
2019-01-27T13:05:10.388Z,1.30
2019-01-27T13:08:11.035Z,1.00
2019-01-27T13:11:14.748Z,1.10
2019-01-27T13:14:18.447Z,1.17
2019-01-27T13:17:22.122Z,1.07
2019-01-27T13:20:25.749Z,1.00
2019-01-27T13:23:29.451Z,0.90
2019-01-27T13:26:33.039Z,0.87
2019-01-27T13:29:36.631Z,1.00
2019-01-27T13:32:40.243Z,1.10
2019-01-27T13:35:43.884Z,0.90
2019-01-27T13:38:51.105Z,1.90
2019-01-27T13:41:51.201Z,1.10
2019-01-27T13:44:54.843Z,1.10
2019-01-27T13:47:59.178Z,0.87
2019-01-27T13:51:02.097Z,1.20
2019-01-27T13:54:05.732Z,1.07
2019-01-27T13:57:09.473Z,0.90
2019-01-27T14:00:17.159Z,1.10
2019-01-27T14:03:20.821Z,1.03
2019-01-27T14:06:24.421Z,1.07
2019-01-27T14:09:28.014Z,0.80
2019-01-27T14:12:31.669Z,1.00
2019-01-27T14:15:35.746Z,0.93
2019-01-27T14:18:39.495Z,0.83
2019-01-27T14:21:43.376Z,1.17
2019-01-27T14:24:47.066Z,1.27
2019-01-27T14:27:52.066Z,0.90
2019-01-27T14:30:54.742Z,1.00
2019-01-27T14:33:58.680Z,0.80
2019-01-27T14:37:02.512Z,0.70
2019-01-27T14:40:08.098Z,1.20
2019-01-27T14:43:11.897Z,0.83
2019-01-27T14:46:15.576Z,0.80
2019-01-27T14:52:50.118Z,1.10
2019-01-27T14:55:53.781Z,1.00
2019-01-27T14:58:57.639Z,0.90
2019-01-27T15:02:01.255Z,1.20
2019-01-27T15:05:05.542Z,1.30
2019-01-27T15:08:09.175Z,1.07
2019-01-27T15:11:12.778Z,1.17
2019-01-27T15:14:16.432Z,1.27
2019-01-27T15:17:19.937Z,1.57
2019-01-27T15:20:26.783Z,1.20
2019-01-27T15:23:30.391Z,1.40
2019-01-27T15:26:33.989Z,2.27
2019-01-27T15:29:37.667Z,1.90
2019-01-27T15:32:41.495Z,2.73
2019-01-27T15:35:45.132Z,2.10
2019-01-27T15:38:48.762Z,1.97
2019-01-27T15:41:52.367Z,1.30
2019-01-27T15:44:55.971Z,1.00
2019-01-27T15:47:59.719Z,1.10
2019-01-27T15:51:03.299Z,1.77
2019-01-27T15:54:06.867Z,2.70
2019-01-27T15:57:10.471Z,2.47
2019-01-27T16:00:17.390Z,1.83
2019-01-27T16:03:20.980Z,1.70
2019-01-27T16:06:28.118Z,1.70
2019-01-27T16:09:31.626Z,1.43
2019-01-27T16:12:35.171Z,1.30
2019-01-27T16:15:38.888Z,1.20
2019-01-27T16:18:42.524Z,1.33
2019-01-27T16:21:46.118Z,1.40
2019-01-27T16:24:49.661Z,1.40
2019-01-27T16:27:53.307Z,1.20
2019-01-27T16:31:02.163Z,1.23
2019-01-27T16:34:12.058Z,1.27
2019-01-27T16:37:15.868Z,1.57
2019-01-27T16:40:19.494Z,1.00
2019-01-27T16:43:23.216Z,1.47
2019-01-27T16:46:27.111Z,1.50
2019-01-27T16:49:30.778Z,1.30
2019-01-27T16:52:34.509Z,1.37
2019-01-27T16:55:38.095Z,1.20
2019-01-27T16:58:41.848Z,2.67
2019-01-27T17:01:45.562Z,1.60
2019-01-27T17:04:49.229Z,1.30
2019-01-27T17:07:52.863Z,1.13
2019-01-27T17:10:56.483Z,1.30
2019-01-27T17:14:00.240Z,1.13
2019-01-27T17:17:03.918Z,2.90
2019-01-27T17:20:10.336Z,1.87
2019-01-27T17:23:14.256Z,1.53
2019-01-27T17:26:17.867Z,1.40
2019-01-27T17:29:21.502Z,1.70
2019-01-27T17:32:25.102Z,1.97
2019-01-27T17:35:28.795Z,1.30
2019-01-27T17:38:40.208Z,1.10
2019-01-27T17:41:37.152Z,1.17
2019-01-27T17:44:40.903Z,1.30
2019-01-27T17:47:44.632Z,1.90
2019-01-27T17:50:48.194Z,1.50
2019-01-27T17:53:55.180Z,1.40
2019-01-27T17:57:03.906Z,1.30
2019-01-27T18:00:15.792Z,1.30
2019-01-27T18:03:29.626Z,1.20
2019-01-27T18:06:39.382Z,1.30
2019-01-27T18:10:02.046Z,0.90
2019-01-27T18:14:08.156Z,0.93
2019-01-27T18:17:12.103Z,0.60
2019-01-27T18:20:16.306Z,0.60
2019-01-27T18:23:21.153Z,0.50
2019-01-27T18:26:24.934Z,0.60
2019-01-27T18:29:28.685Z,0.60
2019-01-27T18:32:33.469Z,0.50
2019-01-27T18:35:37.404Z,0.60
2019-01-27T18:38:41.629Z,0.60
2019-01-27T18:41:45.298Z,0.60
2019-01-27T18:44:49.015Z,0.70
2019-01-27T18:47:52.786Z,0.90
2019-01-27T18:50:56.452Z,0.70
2019-01-27T18:56:09.592Z,1.23
2019-01-27T18:59:19.377Z,1.23
2019-01-27T19:02:27.465Z,1.20
2019-01-27T19:05:36.195Z,1.57
2019-01-27T19:08:44.900Z,1.40
2019-01-27T19:11:53.553Z,1.70
2019-01-27T19:15:05.070Z,1.47
2019-01-27T19:18:14.926Z,1.80
2019-01-27T19:21:23.599Z,1.30
2019-01-27T19:24:32.538Z,1.60
2019-01-27T19:27:40.352Z,1.00
2019-01-27T19:30:49.968Z,1.00
2019-01-27T19:34:03.725Z,1.20
2019-01-27T19:37:13.435Z,1.07
2019-01-27T19:41:24.046Z,1.60
2019-01-27T19:44:37.153Z,1.30
2019-01-27T19:47:46.261Z,1.10
2019-01-27T19:51:02.359Z,1.30
2019-01-27T19:54:11.742Z,1.40
2019-01-27T19:57:31.620Z,1.03
2019-01-27T20:01:10.719Z,1.10
2019-01-27T20:04:24.637Z,0.63
2019-01-27T20:07:38.279Z,0.60
2019-01-27T20:10:50.793Z,1.30
2019-01-27T20:16:03.916Z,0.60
2019-01-27T20:19:12.125Z,1.00
2019-01-27T20:22:19.987Z,0.50
2019-01-27T20:25:29.000Z,0.73
2019-01-27T20:29:09.749Z,0.60
2019-01-27T20:32:23.391Z,0.60
2019-01-27T20:35:33.465Z,0.87
2019-01-27T20:38:42.391Z,0.60
2019-01-27T20:41:51.958Z,0.60
2019-01-27T20:45:03.068Z,0.80
2019-01-27T20:48:17.796Z,0.67
2019-01-27T20:51:31.102Z,0.70
2019-01-27T20:54:40.855Z,0.80
2019-01-27T20:58:00.263Z,0.60
2019-01-27T21:01:43.262Z,0.53
2019-01-27T21:04:59.024Z,0.70
2019-01-27T21:08:10.919Z,0.70
2019-01-27T21:11:19.929Z,0.70
2019-01-27T21:14:29.502Z,1.50
2019-01-27T21:17:52.246Z,1.10
2019-01-27T21:20:56.298Z,1.50
2019-01-27T21:23:59.835Z,1.20
2019-01-27T21:27:06.507Z,1.10
2019-01-27T21:30:09.942Z,0.80
2019-01-27T21:33:13.886Z,0.83
2019-01-27T21:36:18.724Z,0.73
2019-01-27T21:39:23.745Z,1.27
2019-01-27T21:42:27.399Z,1.10
2019-01-27T21:45:31.091Z,1.00
2019-01-27T21:48:34.837Z,1.07
2019-01-27T21:51:38.511Z,0.90
2019-01-27T21:54:42.066Z,1.10
2019-01-27T21:57:45.842Z,0.97
2019-01-27T22:00:49.489Z,1.23
2019-01-27T22:03:53.098Z,1.23
2019-01-27T22:06:56.741Z,1.20
2019-01-27T22:10:01.494Z,1.30
2019-01-27T22:13:05.110Z,1.40
2019-01-27T22:16:09.083Z,1.30
2019-01-27T22:19:12.648Z,1.13
2019-01-27T22:22:16.281Z,1.00
2019-01-27T22:25:20.295Z,1.07
2019-01-27T22:28:23.955Z,1.20
2019-01-27T22:31:27.491Z,1.23
2019-01-27T22:34:31.162Z,1.77
2019-01-27T22:37:39.354Z,1.80
2019-01-27T22:40:43.294Z,2.30
2019-01-27T22:43:46.824Z,2.30
2019-01-27T22:46:51.168Z,3.00
2019-01-27T22:49:54.919Z,3.43
2019-01-27T22:52:58.659Z,4.00
2019-01-27T22:56:02.355Z,3.80
2019-01-27T22:59:05.878Z,3.80
2019-01-27T23:02:09.996Z,3.77
2019-01-27T23:05:13.970Z,4.00
2019-01-27T23:08:18.484Z,4.27
2019-01-27T23:11:22.220Z,4.80
2019-01-27T23:14:25.786Z,4.40
2019-01-27T23:17:29.576Z,4.50
2019-01-27T23:20:33.338Z,4.43
2019-01-27T23:23:37.012Z,3.23
2019-01-27T23:26:40.596Z,2.53
2019-01-27T23:29:44.299Z,2.60
2019-01-27T23:32:47.826Z,2.90
2019-01-27T23:35:51.471Z,2.70
2019-01-27T23:38:55.094Z,2.60
2019-01-27T23:41:58.618Z,2.60
2019-01-27T23:45:02.100Z,2.93
2019-01-27T23:48:05.699Z,2.80
2019-01-27T23:51:09.257Z,2.83
2019-01-27T23:54:12.886Z,2.60
2019-01-27T23:57:16.470Z,3.20
